Robijn — PBEJ — position and weather

sailwx.info

Track history (hours):
 
Tides and Currents Weather Stations Pressure Air Temp Water Temp Dewpoint Dewpoint Depression Visibility Wind Speed Wind Dir Waves Ship Positions

Robijn

Last reported at 2017-Jan-17 22:33 UTC. Time now 2017-Jan-17 23:28 UTC.
Position N 53°59' E 008°22'.

Length 90 m; draft 3.4 m.

Type: Cargo ship. MMSI: 245909000.

Date/timePositionNaut miles runAvg speedWind from/ knotsBaromVisibWave heightAir tempDewpointWater temp
2017-Jan-17 22:33N 53°59' E 008°22'1212.1
2017-Jan-17 21:33N 53°57' E 008°02'9 8.7
2017-Jan-17 20:33N 53°49' E 008°08'1414.1
2017-Jan-17 19:34N 53°39' E 008°24'1111.3
2017-Jan-17 18:33N 53°28' E 008°30'8 7.3
2017-Jan-17 17:29N 53°20' E 008°30'0 0.0
2017-Jan-17 16:32N 53°20' E 008°30'0 0.0
2017-Jan-17 15:32N 53°20' E 008°30'0 0.0
2017-Jan-17 14:32N 53°20' E 008°30'0 0.0
2017-Jan-17 13:32N 53°20' E 008°30'0 0.0
2017-Jan-17 12:32N 53°20' E 008°30'0 0.0
2017-Jan-17 11:32N 53°20' E 008°30'0 0.0
2017-Jan-17 10:29N 53°20' E 008°30'0 0.0
2017-Jan-17 09:32N 53°20' E 008°30'0 0.0
2017-Jan-17 08:32N 53°20' E 008°30'0 0.0
2017-Jan-17 07:32N 53°20' E 008°30'0 0.0
2017-Jan-17 06:32N 53°20' E 008°30'0 0.0
2017-Jan-17 05:32N 53°20' E 008°30'0 0.0
2017-Jan-17 04:32N 53°20' E 008°30'1 1.1
2017-Jan-17 03:34N 53°21' E 008°30'1211.7
2017-Jan-17 02:33N 53°33' E 008°33'1313.0
2017-Jan-17 01:33N 53°43' E 008°18'1212.4
2017-Jan-17 00:33N 53°53' E 008°06'5 5.5
2017-Jan-16 23:33N 53°58' E 008°08'9 9.2
2017-Jan-16 22:33N 53°59' E 008°23'1111.0
2017-Jan-16 21:33N 53°55' E 008°40'1312.6
2017-Jan-16 20:34N 53°51' E 009°01'5 5.3
2017-Jan-16 19:33N 53°54' E 009°09'4 4.3
2017-Jan-16 18:33N 53°57' E 009°14'8 8.4
2017-Jan-16 17:33N 54°05' E 009°19'47 5.6
2017-Jan-16 09:08N 54°32' E 010°25'711.4
2017-Jan-16 08:33N 54°34' E 010°35'1111.3
2017-Jan-16 07:33N 54°36' E 010°55'1111.1
2017-Jan-16 06:33N 54°35' E 011°14'1111.3
2017-Jan-16 05:33N 54°30' E 011°31'1411.2
2017-Jan-16 04:21N 54°26' E 011°54'911.4
2017-Jan-16 03:33N 54°28' E 012°09'1110.9
2017-Jan-16 02:33N 54°38' E 012°17'5711.3
2017-Jan-15 21:32N 55°01' E 013°47'1111.6
2017-Jan-15 20:33N 55°06' E 014°05'1111.0
2017-Jan-15 19:32N 55°14' E 014°17'1111.1
2017-Jan-15 18:33N 55°23' E 014°29'1111.2
2017-Jan-15 17:33N 55°30' E 014°45'1111.3
2017-Jan-15 16:33N 55°35' E 015°03'35010.9
2017-Jan-14 08:22N 59°34' E 022°59'910.6
2017-Jan-14 07:33N 59°36' E 023°15'1010.5
2017-Jan-14 06:33N 59°39' E 023°35'1110.5
2017-Jan-14 05:33N 59°42' E 023°55'6710.5
2017-Jan-13 23:11N 60°01' E 026°03'610.4
2017-Jan-13 22:33N 60°05' E 026°12'1010.3
2017-Jan-13 21:33N 60°14' E 026°24'10 9.9
2017-Jan-13 20:33N 60°21' E 026°38'1010.3
2017-Jan-13 19:33N 60°25' E 026°56'4 3.8
2017-Jan-13 18:33N 60°29' E 026°57'0 0.0
2017-Jan-13 17:33N 60°29' E 026°57'0 0.0
2017-Jan-13 16:33N 60°29' E 026°57'0 0.0
2017-Jan-13 15:33N 60°29' E 026°57'0 0.0
2017-Jan-13 14:33N 60°29' E 026°57'0 0.0
2017-Jan-13 13:33N 60°29' E 026°57'0 0.0
2017-Jan-13 12:33N 60°29' E 026°57'0 0.0
2017-Jan-13 11:33N 60°29' E 026°57'0 0.0
2017-Jan-13 10:33N 60°29' E 026°57'0 0.0
2017-Jan-13 09:33N 60°29' E 026°57'0 0.0
2017-Jan-13 08:33N 60°29' E 026°57'0 0.0
2017-Jan-13 07:33N 60°29' E 026°57'0 0.0
2017-Jan-13 06:33N 60°29' E 026°57'0 0.0
2017-Jan-13 05:33N 60°29' E 026°57'0 0.0
2017-Jan-13 04:33N 60°29' E 026°57'0 0.0
2017-Jan-13 03:33N 60°29' E 026°57'0 0.0
2017-Jan-13 02:33N 60°29' E 026°57'0 0.4
2017-Jan-13 01:32N 60°29' E 026°57'0 0.0
2017-Jan-13 00:32N 60°29' E 026°57'0 0.0
2017-Jan-12 23:32N 60°29' E 026°57'0 0.0
2017-Jan-12 22:32N 60°29' E 026°57'0 0.0
2017-Jan-12 21:32N 60°29' E 026°57'0 0.0
2017-Jan-12 20:32N 60°29' E 026°57'0 0.0
2017-Jan-12 19:32N 60°29' E 026°57'0 0.0
2017-Jan-12 18:32N 60°29' E 026°57'0 0.0
2017-Jan-12 17:32N 60°29' E 026°57'0 0.0
2017-Jan-12 16:32N 60°29' E 026°57'0 0.0
2017-Jan-12 15:32N 60°29' E 026°57'0 0.0
2017-Jan-12 14:32N 60°29' E 026°57'0 0.0
2017-Jan-12 13:33N 60°29' E 026°57'3 3.2
2017-Jan-12 12:33N 60°26' E 026°57'10 9.9
2017-Jan-12 11:33N 60°21' E 026°39'8 8.3
2017-Jan-12 10:33N 60°16' E 026°26'6 6.3
2017-Jan-12 09:33N 60°10' E 026°22'2 2.2
2017-Jan-12 08:33N 60°08' E 026°21'6 6.2
2017-Jan-12 07:33N 60°04' E 026°11'7010.0
2017-Jan-12 00:31N 59°35' E 024°03'1110.5
2017-Jan-11 23:30N 59°31' E 023°44'198 9.9
2017-Jan-11 03:30N 58°36' E 017°34'9 9.8
2017-Jan-11 02:33N 58°37' E 017°16'1110.8
2017-Jan-11 01:33N 58°36' E 016°56'1111.5
2017-Jan-11 00:33N 58°38' E 016°34'1010.3
2017-Jan-10 23:33N 58°37' E 016°14'1 1.4
2017-Jan-10 22:33N 58°36' E 016°12'0 0.0
2017-Jan-10 21:32N 58°36' E 016°12'0 0.0
2017-Jan-10 20:32N 58°36' E 016°12'0 0.0
2017-Jan-10 19:32N 58°36' E 016°12'0 0.0
2017-Jan-10 18:32N 58°36' E 016°12'0 0.0
2017-Jan-10 17:32N 58°36' E 016°12'0 0.0
2017-Jan-10 16:32N 58°36' E 016°12'0 0.0
2017-Jan-10 15:32N 58°36' E 016°12'0 0.0
2017-Jan-10 14:32N 58°36' E 016°12'0 0.0
2017-Jan-10 13:32N 58°36' E 016°12'0 0.0
2017-Jan-10 12:32N 58°36' E 016°12'0 0.0
2017-Jan-10 11:32N 58°36' E 016°12'0 0.0
2017-Jan-10 10:32N 58°36' E 016°12'0 0.0
2017-Jan-10 09:32N 58°36' E 016°12'0 0.0
2017-Jan-10 08:32N 58°36' E 016°12'0 0.0
2017-Jan-10 07:32N 58°36' E 016°12'0 0.0
2017-Jan-10 06:32N 58°36' E 016°12'0 0.0
2017-Jan-10 05:32N 58°36' E 016°12'0 0.4
2017-Jan-10 04:33N 58°37' E 016°12'1 1.0
2017-Jan-10 03:33N 58°36' E 016°12'0 0.0
2017-Jan-10 02:33N 58°36' E 016°12'0 0.0
2017-Jan-10 01:33N 58°36' E 016°12'0 0.0
2017-Jan-10 00:33N 58°36' E 016°12'0 0.0
2017-Jan-09 23:33N 58°36' E 016°12'0 0.0
2017-Jan-09 22:33N 58°36' E 016°12'0 0.0
2017-Jan-09 21:33N 58°36' E 016°12'0 0.0
2017-Jan-09 20:33N 58°36' E 016°12'0 0.0
2017-Jan-09 19:33N 58°36' E 016°12'0 0.0
2017-Jan-09 18:33N 58°36' E 016°12'0 0.0
2017-Jan-09 17:33N 58°36' E 016°12'0 0.0
2017-Jan-09 16:33N 58°36' E 016°12'0 0.0
2017-Jan-09 15:33N 58°36' E 016°12'0 0.0
2017-Jan-09 14:33N 58°36' E 016°12'0 0.0
2017-Jan-09 13:33N 58°36' E 016°12'0 0.0
2017-Jan-09 12:33N 58°36' E 016°12'0 0.0
2017-Jan-09 11:33N 58°36' E 016°12'0 0.0
2017-Jan-09 10:33N 58°36' E 016°12'0 0.0
2017-Jan-09 09:30N 58°36' E 016°12'0 0.0
2017-Jan-09 08:33N 58°36' E 016°12'0 0.0
2017-Jan-09 07:33N 58°36' E 016°12'0 0.0
2017-Jan-09 06:33N 58°36' E 016°12'0 0.0
2017-Jan-09 05:33N 58°36' E 016°12'0 0.0
2017-Jan-09 04:33N 58°36' E 016°12'0 0.0
2017-Jan-09 03:33N 58°36' E 016°12'0 0.0
2017-Jan-09 02:33N 58°36' E 016°12'0 0.0
2017-Jan-09 01:33N 58°36' E 016°12'0 0.0
2017-Jan-09 00:33N 58°36' E 016°12'0 0.0
2017-Jan-08 23:33N 58°36' E 016°12'0 0.0
2017-Jan-08 22:33N 58°36' E 016°12'0 0.0
2017-Jan-08 21:33N 58°36' E 016°12'0 0.0
2017-Jan-08 20:33N 58°36' E 016°12'0 0.0
2017-Jan-08 19:33N 58°36' E 016°12'0 0.0
2017-Jan-08 18:33N 58°36' E 016°12'0 0.0
2017-Jan-08 17:33N 58°36' E 016°12'0 0.0
2017-Jan-08 16:33N 58°36' E 016°12'0 0.0
2017-Jan-08 15:33N 58°36' E 016°12'0 0.0
2017-Jan-08 14:33N 58°36' E 016°12'0 0.0
2017-Jan-08 13:33N 58°36' E 016°12'0 0.0
2017-Jan-08 12:33N 58°36' E 016°12'0 0.0
2017-Jan-08 11:33N 58°36' E 016°12'0 0.0
2017-Jan-08 10:33N 58°36' E 016°12'0 0.0
2017-Jan-08 09:33N 58°36' E 016°12'0 0.0
2017-Jan-08 08:33N 58°36' E 016°12'0 0.0
2017-Jan-08 07:33N 58°36' E 016°12'0 0.0
2017-Jan-08 06:33N 58°36' E 016°12'0 0.0
2017-Jan-08 05:33N 58°36' E 016°12'0 0.0
2017-Jan-08 04:33N 58°36' E 016°12'0 0.0
2017-Jan-08 03:33N 58°36' E 016°12'0 0.0
2017-Jan-08 02:33N 58°36' E 016°12'0 0.0
2017-Jan-08 01:33N 58°36' E 016°12'0 0.0
2017-Jan-08 00:33N 58°36' E 016°12'0 0.0
2017-Jan-07 23:33N 58°36' E 016°12'  
Track history (hours):
 
Tides and Currents Weather Stations Pressure Air Temp Water Temp Dewpoint Dewpoint Depression Visibility Wind Speed Wind Dir Waves Ship Positions

Robijn

Last reported at 2017-Jan-17 22:33 UTC. Time now 2017-Jan-17 23:28 UTC.
Position N 53°59' E 008°22'.

Length 90 m; draft 3.4 m.

Type: Cargo ship. MMSI: 245909000.

Date/timePositionNaut miles runAvg speedWind from/ knotsBaromVisibWave heightAir tempDewpointWater temp
2017-Jan-17 22:33N 53°59' E 008°22'1212.1
2017-Jan-17 21:33N 53°57' E 008°02'9 8.7
2017-Jan-17 20:33N 53°49' E 008°08'1414.1
2017-Jan-17 19:34N 53°39' E 008°24'1111.3
2017-Jan-17 18:33N 53°28' E 008°30'8 7.3
2017-Jan-17 17:29N 53°20' E 008°30'0 0.0
2017-Jan-17 16:32N 53°20' E 008°30'0 0.0
2017-Jan-17 15:32N 53°20' E 008°30'0 0.0
2017-Jan-17 14:32N 53°20' E 008°30'0 0.0
2017-Jan-17 13:32N 53°20' E 008°30'0 0.0
2017-Jan-17 12:32N 53°20' E 008°30'0 0.0
2017-Jan-17 11:32N 53°20' E 008°30'0 0.0
2017-Jan-17 10:29N 53°20' E 008°30'0 0.0
2017-Jan-17 09:32N 53°20' E 008°30'0 0.0
2017-Jan-17 08:32N 53°20' E 008°30'0 0.0
2017-Jan-17 07:32N 53°20' E 008°30'0 0.0
2017-Jan-17 06:32N 53°20' E 008°30'0 0.0
2017-Jan-17 05:32N 53°20' E 008°30'0 0.0
2017-Jan-17 04:32N 53°20' E 008°30'1 1.1
2017-Jan-17 03:34N 53°21' E 008°30'1211.7
2017-Jan-17 02:33N 53°33' E 008°33'1313.0
2017-Jan-17 01:33N 53°43' E 008°18'1212.4
2017-Jan-17 00:33N 53°53' E 008°06'5 5.5
2017-Jan-16 23:33N 53°58' E 008°08'9 9.2
2017-Jan-16 22:33N 53°59' E 008°23'1111.0
2017-Jan-16 21:33N 53°55' E 008°40'1312.6
2017-Jan-16 20:34N 53°51' E 009°01'5 5.3
2017-Jan-16 19:33N 53°54' E 009°09'4 4.3
2017-Jan-16 18:33N 53°57' E 009°14'8 8.4
2017-Jan-16 17:33N 54°05' E 009°19'47 5.6
2017-Jan-16 09:08N 54°32' E 010°25'711.4
2017-Jan-16 08:33N 54°34' E 010°35'1111.3
2017-Jan-16 07:33N 54°36' E 010°55'1111.1
2017-Jan-16 06:33N 54°35' E 011°14'1111.3
2017-Jan-16 05:33N 54°30' E 011°31'1411.2
2017-Jan-16 04:21N 54°26' E 011°54'911.4
2017-Jan-16 03:33N 54°28' E 012°09'1110.9
2017-Jan-16 02:33N 54°38' E 012°17'5711.3
2017-Jan-15 21:32N 55°01' E 013°47'1111.6
2017-Jan-15 20:33N 55°06' E 014°05'1111.0
2017-Jan-15 19:32N 55°14' E 014°17'1111.1
2017-Jan-15 18:33N 55°23' E 014°29'1111.2
2017-Jan-15 17:33N 55°30' E 014°45'1111.3
2017-Jan-15 16:33N 55°35' E 015°03'35010.9
2017-Jan-14 08:22N 59°34' E 022°59'910.6
2017-Jan-14 07:33N 59°36' E 023°15'1010.5
2017-Jan-14 06:33N 59°39' E 023°35'1110.5
2017-Jan-14 05:33N 59°42' E 023°55'6710.5
2017-Jan-13 23:11N 60°01' E 026°03'610.4
2017-Jan-13 22:33N 60°05' E 026°12'1010.3
2017-Jan-13 21:33N 60°14' E 026°24'10 9.9
2017-Jan-13 20:33N 60°21' E 026°38'1010.3
2017-Jan-13 19:33N 60°25' E 026°56'4 3.8
2017-Jan-13 18:33N 60°29' E 026°57'0 0.0
2017-Jan-13 17:33N 60°29' E 026°57'0 0.0
2017-Jan-13 16:33N 60°29' E 026°57'0 0.0
2017-Jan-13 15:33N 60°29' E 026°57'0 0.0
2017-Jan-13 14:33N 60°29' E 026°57'0 0.0
2017-Jan-13 13:33N 60°29' E 026°57'0 0.0
2017-Jan-13 12:33N 60°29' E 026°57'0 0.0
2017-Jan-13 11:33N 60°29' E 026°57'0 0.0
2017-Jan-13 10:33N 60°29' E 026°57'0 0.0
2017-Jan-13 09:33N 60°29' E 026°57'0 0.0
2017-Jan-13 08:33N 60°29' E 026°57'0 0.0
2017-Jan-13 07:33N 60°29' E 026°57'0 0.0
2017-Jan-13 06:33N 60°29' E 026°57'0 0.0
2017-Jan-13 05:33N 60°29' E 026°57'0 0.0
2017-Jan-13 04:33N 60°29' E 026°57'0 0.0
2017-Jan-13 03:33N 60°29' E 026°57'0 0.0
2017-Jan-13 02:33N 60°29' E 026°57'0 0.4
2017-Jan-13 01:32N 60°29' E 026°57'0 0.0
2017-Jan-13 00:32N 60°29' E 026°57'0 0.0
2017-Jan-12 23:32N 60°29' E 026°57'0 0.0
2017-Jan-12 22:32N 60°29' E 026°57'0 0.0
2017-Jan-12 21:32N 60°29' E 026°57'0 0.0
2017-Jan-12 20:32N 60°29' E 026°57'0 0.0
2017-Jan-12 19:32N 60°29' E 026°57'0 0.0
2017-Jan-12 18:32N 60°29' E 026°57'0 0.0
2017-Jan-12 17:32N 60°29' E 026°57'0 0.0
2017-Jan-12 16:32N 60°29' E 026°57'0 0.0
2017-Jan-12 15:32N 60°29' E 026°57'0 0.0
2017-Jan-12 14:32N 60°29' E 026°57'0 0.0
2017-Jan-12 13:33N 60°29' E 026°57'3 3.2
2017-Jan-12 12:33N 60°26' E 026°57'10 9.9
2017-Jan-12 11:33N 60°21' E 026°39'8 8.3
2017-Jan-12 10:33N 60°16' E 026°26'6 6.3
2017-Jan-12 09:33N 60°10' E 026°22'2 2.2
2017-Jan-12 08:33N 60°08' E 026°21'6 6.2
2017-Jan-12 07:33N 60°04' E 026°11'7010.0
2017-Jan-12 00:31N 59°35' E 024°03'1110.5
2017-Jan-11 23:30N 59°31' E 023°44'198 9.9
2017-Jan-11 03:30N 58°36' E 017°34'9 9.8
2017-Jan-11 02:33N 58°37' E 017°16'1110.8
2017-Jan-11 01:33N 58°36' E 016°56'1111.5
2017-Jan-11 00:33N 58°38' E 016°34'1010.3
2017-Jan-10 23:33N 58°37' E 016°14'1 1.4
2017-Jan-10 22:33N 58°36' E 016°12'0 0.0
2017-Jan-10 21:32N 58°36' E 016°12'0 0.0
2017-Jan-10 20:32N 58°36' E 016°12'0 0.0
2017-Jan-10 19:32N 58°36' E 016°12'0 0.0
2017-Jan-10 18:32N 58°36' E 016°12'0 0.0
2017-Jan-10 17:32N 58°36' E 016°12'0 0.0
2017-Jan-10 16:32N 58°36' E 016°12'0 0.0
2017-Jan-10 15:32N 58°36' E 016°12'0 0.0
2017-Jan-10 14:32N 58°36' E 016°12'0 0.0
2017-Jan-10 13:32N 58°36' E 016°12'0 0.0
2017-Jan-10 12:32N 58°36' E 016°12'0 0.0
2017-Jan-10 11:32N 58°36' E 016°12'0 0.0
2017-Jan-10 10:32N 58°36' E 016°12'0 0.0
2017-Jan-10 09:32N 58°36' E 016°12'0 0.0
2017-Jan-10 08:32N 58°36' E 016°12'0 0.0
2017-Jan-10 07:32N 58°36' E 016°12'0 0.0
2017-Jan-10 06:32N 58°36' E 016°12'0 0.0
2017-Jan-10 05:32N 58°36' E 016°12'0 0.4
2017-Jan-10 04:33N 58°37' E 016°12'1 1.0
2017-Jan-10 03:33N 58°36' E 016°12'0 0.0
2017-Jan-10 02:33N 58°36' E 016°12'0 0.0
2017-Jan-10 01:33N 58°36' E 016°12'0 0.0
2017-Jan-10 00:33N 58°36' E 016°12'0 0.0
2017-Jan-09 23:33N 58°36' E 016°12'0 0.0
2017-Jan-09 22:33N 58°36' E 016°12'0 0.0
2017-Jan-09 21:33N 58°36' E 016°12'0 0.0
2017-Jan-09 20:33N 58°36' E 016°12'0 0.0
2017-Jan-09 19:33N 58°36' E 016°12'0 0.0
2017-Jan-09 18:33N 58°36' E 016°12'0 0.0
2017-Jan-09 17:33N 58°36' E 016°12'0 0.0
2017-Jan-09 16:33N 58°36' E 016°12'0 0.0
2017-Jan-09 15:33N 58°36' E 016°12'0 0.0
2017-Jan-09 14:33N 58°36' E 016°12'0 0.0
2017-Jan-09 13:33N 58°36' E 016°12'0 0.0
2017-Jan-09 12:33N 58°36' E 016°12'0 0.0
2017-Jan-09 11:33N 58°36' E 016°12'0 0.0
2017-Jan-09 10:33N 58°36' E 016°12'0 0.0
2017-Jan-09 09:30N 58°36' E 016°12'0 0.0
2017-Jan-09 08:33N 58°36' E 016°12'0 0.0
2017-Jan-09 07:33N 58°36' E 016°12'0 0.0
2017-Jan-09 06:33N 58°36' E 016°12'0 0.0
2017-Jan-09 05:33N 58°36' E 016°12'0 0.0
2017-Jan-09 04:33N 58°36' E 016°12'0 0.0
2017-Jan-09 03:33N 58°36' E 016°12'0 0.0
2017-Jan-09 02:33N 58°36' E 016°12'0 0.0
2017-Jan-09 01:33N 58°36' E 016°12'0 0.0
2017-Jan-09 00:33N 58°36' E 016°12'0 0.0
2017-Jan-08 23:33N 58°36' E 016°12'0 0.0
2017-Jan-08 22:33N 58°36' E 016°12'0 0.0
2017-Jan-08 21:33N 58°36' E 016°12'0 0.0
2017-Jan-08 20:33N 58°36' E 016°12'0 0.0
2017-Jan-08 19:33N 58°36' E 016°12'0 0.0
2017-Jan-08 18:33N 58°36' E 016°12'0 0.0
2017-Jan-08 17:33N 58°36' E 016°12'0 0.0
2017-Jan-08 16:33N 58°36' E 016°12'0 0.0
2017-Jan-08 15:33N 58°36' E 016°12'0 0.0
2017-Jan-08 14:33N 58°36' E 016°12'0 0.0
2017-Jan-08 13:33N 58°36' E 016°12'0 0.0
2017-Jan-08 12:33N 58°36' E 016°12'0 0.0
2017-Jan-08 11:33N 58°36' E 016°12'0 0.0
2017-Jan-08 10:33N 58°36' E 016°12'0 0.0
2017-Jan-08 09:33N 58°36' E 016°12'0 0.0
2017-Jan-08 08:33N 58°36' E 016°12'0 0.0
2017-Jan-08 07:33N 58°36' E 016°12'0 0.0
2017-Jan-08 06:33N 58°36' E 016°12'0 0.0
2017-Jan-08 05:33N 58°36' E 016°12'0 0.0
2017-Jan-08 04:33N 58°36' E 016°12'0 0.0
2017-Jan-08 03:33N 58°36' E 016°12'0 0.0
2017-Jan-08 02:33N 58°36' E 016°12'0 0.0
2017-Jan-08 01:33N 58°36' E 016°12'0 0.0
2017-Jan-08 00:33N 58°36' E 016°12'0 0.0
2017-Jan-07 23:33N 58°36' E 016°12'  

Dump ship's entire track history